aviador You're here:

KSUN Decoded Metar

HAILEY/FRIEDMAN in ID, USA
Report Time2018-02-17 22:47:00
UTC Time2018-02-17 23:38:48
Flight Rules mvfr MVFR
Wind120° at 08 kt
W.Decomp.*RWY 13: 7.2 kt HW 3.5 kt LCW
W.Rank120° ranks 4
Current wind is above 120° avg. (7.7)
Visibility9999 m
Phenomena:N/A
Clouds:Broken 025 Hf
Overcast 040 Hf
Expected CloudBase > 2,400 ft AGL from Temp-Dew spread
Ceiling2,500 ft
Temp03°C (ISA -1)
Dew Point-3°C (65% RH)
AAT-2.3°C
QNH1011 hPa
Density Alt5,289 ft
Elevation5,315 ft
Report Wrong Elevation
Raw Report
METAR KSUN 172247Z 12008KT 10SM BKN025 OVC040 03/M03 A2985=

Extra information for KSUN:More info

Metar Taf Metar & Taf Last 4 Metars F.Rules Stats Wind Profile Meteogram Temp Stats Airport Information Weather charts Add Link Nearby VenuesMetar ALERT Operation Metar Decoded Social comments

AIRNAV info for KSUN